Time;durP1;ratioP1;P1;durP2;ratioP2;P2;SDS_P1;SDS_P2;PMS_P1;PMS_P2;Temp;Humidity;BMP_temperature;BMP_pressure;BME280_temperature;BME280_humidity;BME280_pressure;Samples;Min_cycle;Max_cycle;Signal;HPM_P1;HPM_P2
2021/11/15 00:02:02;;;;;;;60.40;31.73;;;;;;;15.82;52.72;102347.22;4975075;28;20521;-70
2021/11/15 00:04:28;;;;;;;50.87;29.23;;;;;;;15.57;53.00;102344.88;4974798;28;20181;-69
2021/11/15 00:06:53;;;;;;;48.90;28.53;;;;;;;15.34;53.08;102339.78;4974789;28;20220;-69
2021/11/15 00:09:19;;;;;;;56.47;30.93;;;;;;;15.48;52.76;102341.75;4975016;28;20198;-70
2021/11/15 00:11:44;;;;;;;56.03;31.27;;;;;;;16.09;51.72;102346.78;4974989;28;20616;-68
2021/11/15 00:14:09;;;;;;;54.33;31.57;;;;;;;15.83;52.03;102337.34;4976032;28;20615;-70
2021/11/15 00:16:35;;;;;;;56.33;30.67;;;;;;;15.76;52.53;102342.16;4958482;28;20214;-69
2021/11/15 00:19:02;;;;;;;52.43;29.10;;;;;;;16.07;52.26;102346.84;4974556;28;20237;-71
2021/11/15 00:21:27;;;;;;;52.87;28.80;;;;;;;15.60;52.69;102330.41;4975154;28;20276;-70
2021/11/15 00:23:52;;;;;;;50.00;28.20;;;;;;;16.38;51.07;102335.34;4975737;28;20201;-69
2021/11/15 00:26:18;;;;;;;48.87;27.70;;;;;;;16.38;51.31;102339.84;4974622;28;20181;-69
2021/11/15 00:28:43;;;;;;;49.70;27.57;;;;;;;16.07;51.80;102335.22;4974250;28;20186;-71
2021/11/15 00:31:09;;;;;;;55.43;28.37;;;;;;;16.02;52.10;102343.53;4975617;28;20249;-69
2021/11/15 00:33:34;;;;;;;48.93;26.90;;;;;;;16.38;50.97;102342.56;4974399;28;20178;-69
2021/11/15 00:35:59;;;;;;;45.60;26.83;;;;;;;15.66;52.70;102342.72;4974224;28;20206;-69
2021/11/15 00:38:25;;;;;;;45.30;26.83;;;;;;;16.24;51.30;102340.56;4975388;28;20185;-70
2021/11/15 00:40:50;;;;;;;48.13;25.70;;;;;;;16.51;51.12;102343.63;4973585;28;20198;-72
2021/11/15 00:43:16;;;;;;;46.00;26.10;;;;;;;16.32;51.41;102341.03;4974175;28;20183;-69
2021/11/15 00:45:41;;;;;;;45.70;25.40;;;;;;;15.37;53.15;102339.63;4957945;28;20181;-71
2021/11/15 00:48:07;;;;;;;42.23;24.47;;;;;;;16.22;50.83;102337.97;4957962;28;20191;-70
2021/11/15 00:50:33;;;;;;;42.37;25.87;;;;;;;15.90;51.73;102341.44;4975651;28;20194;-68
2021/11/15 00:52:58;;;;;;;43.83;26.27;;;;;;;16.25;51.23;102331.53;4975169;28;20191;-71
2021/11/15 00:55:24;;;;;;;43.70;26.17;;;;;;;15.86;51.81;102323.72;4973962;28;20206;-71
2021/11/15 00:57:50;;;;;;;44.40;25.43;;;;;;;16.15;52.06;102339.25;4975480;28;20178;-69
2021/11/15 01:00:18;;;;;;;42.73;25.13;;;;;;;16.17;51.97;102340.03;4974183;28;20268;-70
2021/11/15 01:02:44;;;;;;;49.40;27.40;;;;;;;15.82;52.18;102325.69;4957755;28;20283;-69
2021/11/15 01:05:10;;;;;;;47.60;27.17;;;;;;;15.26;52.67;102315.06;4957655;28;20206;-70
2021/11/15 01:07:35;;;;;;;45.83;27.47;;;;;;;16.01;51.93;102324.75;4973751;28;20281;-68
2021/11/15 01:10:01;;;;;;;46.00;27.33;;;;;;;15.84;51.95;102317.53;4975391;28;20194;-69
2021/11/15 01:12:26;;;;;;;45.23;27.70;;;;;;;15.89;52.20;102319.03;4973828;28;20185;-68
2021/11/15 01:14:52;;;;;;;42.07;25.53;;;;;;;15.66;52.60;102315.81;4974146;28;20214;-69
2021/11/15 01:17:17;;;;;;;51.47;28.20;;;;;;;16.02;51.91;102318.41;4974867;28;20182;-69
2021/11/15 01:19:43;;;;;;;51.00;28.30;;;;;;;15.24;52.71;102315.16;4957586;28;20194;-68
2021/11/15 01:22:08;;;;;;;49.23;27.40;;;;;;;15.81;52.14;102321.25;4973605;28;20257;-70
2021/11/15 01:24:33;;;;;;;48.90;28.10;;;;;;;15.28;52.75;102316.72;4974577;28;20241;-69
2021/11/15 01:26:59;;;;;;;47.97;27.27;;;;;;;16.05;52.03;102340.69;4973612;28;20183;-69
2021/11/15 01:29:24;;;;;;;47.53;27.57;;;;;;;15.58;52.22;102325.09;4973248;28;20210;-69
2021/11/15 01:31:49;;;;;;;54.57;29.13;;;;;;;15.49;52.36;102328.22;4974179;28;20186;-69
2021/11/15 01:34:14;;;;;;;53.07;27.90;;;;;;;15.60;52.86;102336.66;4973296;28;20657;-70
2021/11/15 01:36:40;;;;;;;45.40;27.23;;;;;;;15.66;52.63;102327.44;4957062;28;20181;-70
2021/11/15 01:39:05;;;;;;;52.73;28.97;;;;;;;16.06;51.61;102338.84;4973522;28;20195;-71
2021/11/15 01:41:31;;;;;;;48.60;27.60;;;;;;;15.26;52.99;102333.91;4973405;28;20238;-69
2021/11/15 01:43:56;;;;;;;49.43;28.07;;;;;;;15.97;51.91;102345.56;4973256;28;20326;-69
2021/11/15 01:46:21;;;;;;;48.40;27.13;;;;;;;15.71;52.69;102340.66;4957059;28;20178;-70
2021/11/15 01:48:47;;;;;;;46.37;26.30;;;;;;;15.63;52.18;102338.38;4974387;28;20675;-70
2021/11/15 01:51:12;;;;;;;43.50;25.80;;;;;;;15.35;52.88;102335.25;4973028;28;20249;-70
2021/11/15 01:53:38;;;;;;;48.67;26.63;;;;;;;13.85;54.61;102334.06;4973701;28;20186;-71
2021/11/15 01:56:03;;;;;;;42.73;25.27;;;;;;;15.07;53.40;102339.28;4974555;28;20595;-68
2021/11/15 01:58:28;;;;;;;44.73;26.00;;;;;;;15.23;53.07;102334.88;4973056;28;20214;-68
2021/11/15 02:00:56;;;;;;;44.10;25.80;;;;;;;15.27;53.08;102343.72;4974170;28;20194;-68
2021/11/15 02:03:24;;;;;;;43.00;25.03;;;;;;;16.39;51.06;102355.06;4973079;28;20188;-68
2021/11/15 02:05:50;;;;;;;43.60;26.20;;;;;;;16.09;51.69;102352.16;4973222;28;20187;-69
2021/11/15 02:08:16;;;;;;;44.63;26.93;;;;;;;16.08;51.62;102350.41;4974165;28;20291;-69
2021/11/15 02:10:42;;;;;;;44.20;27.13;;;;;;;15.89;52.42;102353.16;4972820;28;20194;-68
2021/11/15 02:13:07;;;;;;;47.40;27.10;;;;;;;16.12;51.72;102352.88;4973994;28;20188;-70
2021/11/15 02:15:33;;;;;;;43.43;25.90;;;;;;;14.54;53.85;102331.06;4972733;28;20541;-69
2021/11/15 02:17:59;;;;;;;43.50;26.63;;;;;;;15.10;52.93;102338.25;4972783;28;20214;-69
2021/11/15 02:20:43;;;;;;;43.73;25.83;;;;;;;15.78;51.96;102340.25;4956556;28;20202;-69
2021/11/15 02:23:08;;;;;;;45.20;27.30;;;;;;;14.34;53.49;102316.66;4972928;28;20168;-69
2021/11/15 02:25:34;;;;;;;44.83;26.17;;;;;;;15.04;53.37;102327.81;4973118;28;20186;-70
2021/11/15 02:27:59;;;;;;;45.37;25.13;;;;;;;15.42;52.65;102329.50;4974069;28;20176;-70
2021/11/15 02:30:26;;;;;;;49.67;27.70;;;;;;;15.47;52.55;102323.88;4988860;28;20251;-69
2021/11/15 02:32:52;;;;;;;47.60;27.60;;;;;;;14.52;54.04;102325.75;4972799;28;20230;-69
2021/11/15 02:35:18;;;;;;;45.17;27.10;;;;;;;15.83;52.13;102335.50;4972532;28;20616;-70
2021/11/15 02:37:45;;;;;;;49.97;28.50;;;;;;;15.13;53.56;102327.34;4956530;28;20190;-69
2021/11/15 02:40:11;;;;;;;45.20;27.30;;;;;;;15.22;52.66;102311.63;4972595;28;20252;-70
2021/11/15 02:42:37;;;;;;;47.67;27.33;;;;;;;15.32;52.63;102323.69;4972634;28;20186;-69
2021/11/15 02:45:05;;;;;;;44.40;26.93;;;;;;;15.41;52.67;102316.13;4972709;28;20189;-69
2021/11/15 02:47:30;;;;;;;44.97;27.07;;;;;;;16.21;50.88;102319.19;4973729;28;20174;-70
2021/11/15 02:49:56;;;;;;;47.10;28.00;;;;;;;16.42;50.42;102318.03;4972806;28;20205;-69
2021/11/15 02:52:21;;;;;;;45.93;28.20;;;;;;;15.88;51.33;102313.72;4972588;28;20186;-68
2021/11/15 02:54:46;;;;;;;53.93;29.77;;;;;;;15.70;51.93;102306.63;4973932;28;20198;-69
2021/11/15 02:57:21;;;;;;;51.60;29.70;;;;;;;15.47;52.28;102305.03;4972429;28;20641;-70
2021/11/15 02:59:47;;;;;;;47.87;28.33;;;;;;;15.44;52.14;102295.31;4956203;28;20686;-69
2021/11/15 03:02:12;;;;;;;41.23;27.43;;;;;;;15.81;51.57;102305.13;4973294;28;20200;-69
2021/11/15 03:04:38;;;;;;;50.53;28.20;;;;;;;15.38;51.78;102289.38;4977202;28;20171;-69
2021/11/15 03:07:03;;;;;;;45.33;28.07;;;;;;;16.05;51.16;102305.66;4962154;28;20190;-69
2021/11/15 03:09:29;;;;;;;52.37;29.97;;;;;;;15.75;51.53;102301.88;4977262;28;20201;-70
2021/11/15 03:11:54;;;;;;;48.50;28.57;;;;;;;15.13;52.44;102287.00;4961430;28;20269;-70
2021/11/15 03:14:20;;;;;;;44.37;27.07;;;;;;;14.57;54.13;102302.22;4977380;28;20174;-70
2021/11/15 03:16:45;;;;;;;52.33;28.87;;;;;;;14.61;53.88;102314.56;4976562;28;20269;-69
2021/11/15 03:19:10;;;;;;;45.63;28.40;;;;;;;15.53;52.58;102312.81;4976895;28;20229;-69
2021/11/15 03:21:36;;;;;;;52.10;29.57;;;;;;;15.63;52.65;102311.44;4976834;28;20188;-69
2021/11/15 03:24:01;;;;;;;51.23;29.97;;;;;;;15.08;53.64;102307.88;4976936;28;20182;-68
2021/11/15 03:26:27;;;;;;;47.93;28.90;;;;;;;15.20;54.00;102318.03;4975561;28;20171;-68
2021/11/15 03:28:53;;;;;;;54.23;30.40;;;;;;;15.48;52.58;102301.41;4959349;28;20187;-70
2021/11/15 03:31:25;;;;;;;45.37;28.23;;;;;;;15.51;52.74;102312.88;4975413;28;20186;-69
2021/11/15 03:33:53;;;;;;;48.87;28.07;;;;;;;15.37;53.14;102325.28;4975643;28;20182;-69
2021/11/15 03:36:19;;;;;;;48.87;28.50;;;;;;;15.32;52.67;102312.94;4975322;28;20201;-69
2021/11/15 03:38:45;;;;;;;56.53;29.83;;;;;;;14.83;53.32;102305.50;4977230;28;20245;-69
2021/11/15 03:41:10;;;;;;;54.03;29.20;;;;;;;14.44;54.45;102321.66;4976433;28;20205;-69
2021/11/15 03:43:36;;;;;;;48.57;28.80;;;;;;;14.65;54.15;102321.53;4975232;28;20182;-69
2021/11/15 03:46:03;;;;;;;53.13;28.63;;;;;;;15.68;52.91;102325.53;4975273;28;20241;-70
2021/11/15 03:48:28;;;;;;;47.90;28.13;;;;;;;15.47;52.93;102315.81;4975387;28;20186;-69
2021/11/15 03:50:56;;;;;;;49.83;29.43;;;;;;;15.68;52.61;102320.16;4976427;28;20703;-70
2021/11/15 03:53:27;;;;;;;51.67;28.47;;;;;;;15.68;53.15;102346.19;4959472;28;20584;-69
2021/11/15 03:55:53;;;;;;;57.53;29.83;;;;;;;14.85;54.56;102333.16;4991105;28;20206;-68
2021/11/15 03:58:18;;;;;;;59.83;27.37;;;;;;;15.55;53.20;102324.38;4958793;28;20556;-69
2021/11/15 04:00:44;;;;;;;49.00;27.57;;;;;;;14.63;54.87;102328.81;4976250;28;20698;-69
2021/11/15 04:03:17;;;;;;;48.00;27.50;;;;;;;15.01;54.83;102335.06;4958968;28;20277;-69
2021/11/15 04:05:45;;;;;;;49.03;29.20;;;;;;;14.50;54.60;102322.25;4975490;28;20529;-69
2021/11/15 04:08:10;;;;;;;50.27;28.10;;;;;;;14.61;55.49;102330.69;4974744;28;20210;-68
2021/11/15 04:10:38;;;;;;;51.30;27.63;;;;;;;14.89;54.96;102335.66;4974609;28;20200;-68
2021/11/15 04:13:08;;;;;;;51.47;28.30;;;;;;;14.69;55.16;102330.34;4974830;28;20193;-69
2021/11/15 04:15:34;;;;;;;42.27;26.47;;;;;;;15.41;53.67;102322.38;4973575;28;20211;-69
2021/11/15 04:18:00;;;;;;;56.70;27.80;;;;;;;15.48;53.51;102325.63;4958567;28;20186;-69
2021/11/15 04:20:27;;;;;;;56.83;28.63;;;;;;;15.47;53.56;102327.44;4974587;28;20336;-69
2021/11/15 04:22:52;;;;;;;50.10;27.17;;;;;;;14.50;55.84;102327.63;4975936;28;20182;-70
2021/11/15 04:25:18;;;;;;;47.00;26.73;;;;;;;14.22;56.29;102319.91;4958625;28;20178;-68
2021/11/15 04:27:44;;;;;;;46.80;26.07;;;;;;;14.22;56.34;102332.47;4958867;28;20182;-69
2021/11/15 04:30:12;;;;;;;43.77;25.30;;;;;;;15.12;53.74;102315.72;4975506;28;20221;-68
2021/11/15 04:32:38;;;;;;;41.13;23.10;;;;;;;14.87;53.57;102310.66;4974542;28;20282;-67
2021/11/15 04:35:05;;;;;;;42.07;24.57;;;;;;;15.81;51.77;102321.25;4958253;28;20209;-69
2021/11/15 04:37:30;;;;;;;48.00;25.83;;;;;;;15.16;53.25;102319.13;4975395;28;20189;-69
2021/11/15 04:39:57;;;;;;;44.80;26.07;;;;;;;15.53;52.67;102310.13;4957915;28;20198;-68
2021/11/15 04:42:22;;;;;;;42.07;23.70;;;;;;;16.09;52.20;102333.31;4974216;28;20687;-69
2021/11/15 04:44:48;;;;;;;47.57;25.57;;;;;;;15.51;52.81;102320.97;4973921;28;20205;-69
2021/11/15 04:47:13;;;;;;;43.63;24.17;;;;;;;15.05;54.40;102322.34;4974766;28;20182;-69
2021/11/15 04:49:38;;;;;;;38.57;23.50;;;;;;;15.19;53.01;102319.84;4974161;28;20684;-69
2021/11/15 04:52:06;;;;;;;40.97;22.97;;;;;;;15.23;53.23;102328.63;4974169;28;20564;-69
2021/11/15 04:54:31;;;;;;;43.17;23.90;;;;;;;15.43;53.18;102315.09;4974089;28;20178;-69
2021/11/15 04:56:57;;;;;;;43.67;24.33;;;;;;;15.42;53.18;102323.25;4976029;28;20190;-69
2021/11/15 04:59:23;;;;;;;41.77;23.70;;;;;;;14.82;54.11;102328.81;4976179;28;20193;-69
2021/11/15 05:01:48;;;;;;;41.00;24.03;;;;;;;15.22;53.77;102326.91;4976033;28;20198;-69
2021/11/15 05:04:13;;;;;;;38.30;20.73;;;;;;;14.59;55.33;102323.66;4975933;28;20184;-69
2021/11/15 05:06:38;;;;;;;40.00;21.97;;;;;;;14.82;55.44;102327.94;4975600;28;20175;-69
2021/11/15 05:09:04;;;;;;;37.20;21.77;;;;;;;15.92;52.40;102323.38;4959607;28;20252;-70
2021/11/15 05:11:29;;;;;;;34.47;20.87;;;;;;;15.93;52.56;102320.63;4977217;28;20253;-69
2021/11/15 05:13:54;;;;;;;36.33;20.43;;;;;;;15.56;52.53;102310.81;4974153;28;20612;-69
2021/11/15 05:16:20;;;;;;;33.50;19.13;;;;;;;14.00;56.10;102316.41;4975012;28;20283;-69
2021/11/15 05:18:45;;;;;;;32.70;19.03;;;;;;;14.74;54.63;102324.75;4973744;28;20206;-70
2021/11/15 05:21:11;;;;;;;27.53;16.83;;;;;;;14.33;56.04;102333.72;4973553;28;20220;-71
2021/11/15 05:23:39;;;;;;;28.23;17.07;;;;;;;14.83;54.07;102324.31;4973769;28;20174;-69
2021/11/15 05:26:05;;;;;;;27.67;16.93;;;;;;;15.13;53.69;102330.03;4957341;28;20177;-69
2021/11/15 05:28:30;;;;;;;27.83;15.47;;;;;;;13.59;56.08;102318.19;4973671;28;20544;-70
2021/11/15 05:30:55;;;;;;;24.33;13.97;;;;;;;13.99;55.34;102312.84;5012589;23;20690;-69
2021/11/15 05:33:21;;;;;;;21.70;14.23;;;;;;;14.50;54.47;102305.28;4994615;28;20180;-68
2021/11/15 05:35:46;;;;;;;23.60;13.27;;;;;;;13.99;55.14;102304.81;4994032;28;20205;-69
2021/11/15 05:38:11;;;;;;;23.90;14.63;;;;;;;13.88;56.14;102316.97;4993609;28;20239;-67
2021/11/15 05:40:37;;;;;;;23.63;11.87;;;;;;;12.15;58.80;102320.22;4994336;28;20197;-68
2021/11/15 05:43:02;;;;;;;22.67;12.20;;;;;;;13.00;58.27;102325.00;4993239;28;20181;-67
2021/11/15 05:45:28;;;;;;;22.87;12.63;;;;;;;14.21;55.02;102322.66;4994032;28;20543;-67
2021/11/15 05:47:55;;;;;;;21.33;12.57;;;;;;;14.36;54.04;102319.28;4993421;28;20182;-68
2021/11/15 05:50:21;;;;;;;22.57;13.23;;;;;;;14.57;53.50;102318.34;4994180;28;20193;-68
2021/11/15 05:52:47;;;;;;;25.63;14.13;;;;;;;13.83;55.50;102319.84;4993016;28;20181;-69
2021/11/15 05:55:15;;;;;;;19.13;12.43;;;;;;;14.00;55.38;102327.16;4992681;28;20198;-68
2021/11/15 05:57:40;;;;;;;20.17;12.67;;;;;;;13.69;55.44;102316.84;4993944;28;20315;-68
2021/11/15 06:00:09;;;;;;;24.80;12.40;;;;;;;14.35;54.27;102320.22;4994245;28;20245;-68
2021/11/15 06:02:34;;;;;;;22.33;13.97;;;;;;;15.15;53.11;102333.53;4993954;28;20178;-68
2021/11/15 06:05:00;;;;;;;24.37;13.77;;;;;;;14.47;54.54;102330.44;4993894;28;20180;-67
2021/11/15 06:07:25;;;;;;;23.23;14.10;;;;;;;15.53;52.51;102321.75;4994131;28;20181;-69
2021/11/15 06:09:50;;;;;;;23.07;14.83;;;;;;;14.83;53.80;102337.75;4994298;28;20700;-67
2021/11/15 06:12:16;;;;;;;24.30;15.00;;;;;;;14.49;54.05;102322.31;4992880;28;20248;-68
2021/11/15 06:14:41;;;;;;;28.37;15.80;;;;;;;14.86;54.02;102338.47;4993686;28;20220;-67
2021/11/15 06:17:06;;;;;;;27.87;14.70;;;;;;;14.62;54.43;102336.94;4993652;28;20182;-67
2021/11/15 06:19:31;;;;;;;29.33;15.77;;;;;;;14.06;56.30;102351.03;4993383;28;20180;-67
2021/11/15 06:21:57;;;;;;;30.70;17.47;;;;;;;13.59;56.87;102347.69;4992542;28;20185;-68
2021/11/15 06:24:22;;;;;;;33.33;17.37;;;;;;;14.32;55.19;102347.22;4975870;28;20232;-68
2021/11/15 06:26:47;;;;;;;25.97;15.70;;;;;;;14.65;54.64;102358.28;4993468;28;20623;-68
2021/11/15 06:29:13;;;;;;;33.70;16.23;;;;;;;14.23;55.20;102361.06;4993209;28;20256;-68
2021/11/15 06:31:38;;;;;;;39.67;18.60;;;;;;;14.06;56.69;102362.66;4993170;28;20221;-68
2021/11/15 06:34:03;;;;;;;27.37;15.60;;;;;;;14.32;55.88;102363.34;4993224;28;20181;-68
2021/11/15 06:36:29;;;;;;;29.20;16.40;;;;;;;14.36;54.43;102346.13;4992983;28;20201;-69
2021/11/15 06:38:55;;;;;;;33.70;18.70;;;;;;;14.80;54.88;102370.13;4996120;28;20260;-69
2021/11/15 06:41:22;;;;;;;34.60;18.10;;;;;;;14.38;55.74;102374.66;4996845;28;20631;-68
2021/11/15 06:43:47;;;;;;;33.13;17.00;;;;;;;14.77;53.96;102362.22;4995679;28;20202;-69
2021/11/15 06:46:14;;;;;;;28.93;15.40;;;;;;;13.54;56.46;102360.44;4997311;28;20174;-69
2021/11/15 06:48:43;;;;;;;29.07;16.80;;;;;;;13.63;57.88;102373.47;4996861;28;20186;-68
2021/11/15 06:51:12;;;;;;;29.33;16.73;;;;;;;14.55;55.38;102373.97;4995932;28;20225;-69
2021/11/15 06:53:39;;;;;;;27.40;15.63;;;;;;;13.85;56.74;102366.28;4997042;28;20186;-69
2021/11/15 06:56:05;;;;;;;34.67;17.23;;;;;;;14.16;56.30;102370.34;4995578;28;20536;-68
2021/11/15 06:58:31;;;;;;;32.87;17.03;;;;;;;14.66;55.74;102377.03;4996536;28;20174;-68
2021/11/15 07:00:57;;;;;;;31.83;17.50;;;;;;;14.20;56.32;102371.94;4996438;28;20201;-68
2021/11/15 07:03:22;;;;;;;27.67;15.77;;;;;;;14.84;54.79;102369.06;4995675;28;20555;-68
2021/11/15 07:05:48;;;;;;;30.50;15.57;;;;;;;14.78;54.55;102370.22;4996632;28;20628;-68
2021/11/15 07:08:14;;;;;;;30.77;15.47;;;;;;;14.66;55.13;102385.09;4995546;28;20178;-68
2021/11/15 07:10:39;;;;;;;28.53;15.53;;;;;;;14.66;54.75;102371.66;4996455;28;20197;-68
2021/11/15 07:13:05;;;;;;;29.13;15.90;;;;;;;14.22;55.52;102365.56;4995077;28;20181;-67
2021/11/15 07:15:30;;;;;;;33.30;18.20;;;;;;;13.23;57.71;102376.88;4996499;28;20308;-69
2021/11/15 07:17:55;;;;;;;32.20;16.37;;;;;;;14.89;54.68;102367.91;4996220;28;20264;-67
2021/11/15 07:20:21;;;;;;;32.10;15.67;;;;;;;13.92;57.11;102370.44;4996077;28;20205;-68
2021/11/15 07:22:48;;;;;;;28.43;16.40;;;;;;;14.64;56.31;102368.16;4996580;28;20178;-68
2021/11/15 07:25:16;;;;;;;27.13;15.23;;;;;;;14.44;56.30;102370.88;4996144;28;20174;-67
2021/11/15 07:27:41;;;;;;;30.00;16.17;;;;;;;14.40;55.90;102361.16;4996348;28;20563;-68
2021/11/15 07:30:08;;;;;;;33.47;17.60;;;;;;;13.13;59.08;102371.84;4994878;28;20212;-68
2021/11/15 07:32:33;;;;;;;30.53;17.20;;;;;;;14.63;56.19;102369.13;4995080;28;20648;-69
2021/11/15 07:34:58;;;;;;;30.30;15.67;;;;;;;15.09;54.96;102372.34;4996081;28;20267;-69
2021/11/15 07:37:24;;;;;;;27.67;16.17;;;;;;;15.41;54.61;102364.53;4996148;28;20209;-69
2021/11/15 07:39:49;;;;;;;31.43;18.10;;;;;;;15.36;54.67;102378.22;4995779;28;20204;-69
2021/11/15 07:42:16;;;;;;;30.17;15.87;;;;;;;15.43;54.64;102384.16;4996518;28;20189;-68
2021/11/15 07:44:42;;;;;;;35.60;16.80;;;;;;;15.15;55.23;102382.81;4996458;28;20186;-67
2021/11/15 07:47:08;;;;;;;28.30;16.30;;;;;;;14.69;56.39;102382.25;4996704;28;20702;-69
2021/11/15 07:49:33;;;;;;;30.13;17.90;;;;;;;14.92;55.67;102377.66;4996041;28;20178;-68
2021/11/15 07:51:59;;;;;;;31.47;17.27;;;;;;;15.43;54.70;102379.66;4996586;28;20186;-69
2021/11/15 07:54:24;;;;;;;32.37;17.17;;;;;;;15.26;55.00;102369.72;4995823;28;20182;-68
2021/11/15 07:56:49;;;;;;;29.27;16.57;;;;;;;15.95;53.99;102372.56;4995673;28;20201;-68
2021/11/15 07:59:15;;;;;;;32.73;18.27;;;;;;;15.55;54.79;102378.19;4995685;28;20178;-68
2021/11/15 08:01:40;;;;;;;36.07;19.33;;;;;;;15.64;54.43;102372.41;4993962;28;20212;-69
2021/11/15 08:04:06;;;;;;;29.47;16.73;;;;;;;16.21;53.54;102383.84;4994176;28;20209;-68
2021/11/15 08:06:31;;;;;;;32.20;16.77;;;;;;;15.94;53.74;102380.72;4995864;28;20178;-68
2021/11/15 08:08:56;;;;;;;33.07;17.50;;;;;;;15.41;55.29;102380.69;4995670;28;20651;-68
2021/11/15 08:11:24;;;;;;;30.23;16.43;;;;;;;15.96;54.32;102384.22;4995480;28;20212;-68
2021/11/15 08:13:49;;;;;;;29.77;17.27;;;;;;;14.85;56.16;102378.84;4994851;28;20185;-68
2021/11/15 08:16:14;;;;;;;28.33;16.10;;;;;;;14.43;57.08;102369.13;4995867;28;20589;-68
2021/11/15 08:18:41;;;;;;;30.60;16.20;;;;;;;15.04;56.32;102382.44;4996620;28;20185;-68
2021/11/15 08:21:12;;;;;;;25.37;15.43;;;;;;;13.99;58.35;102379.97;4995298;28;20691;-68
2021/11/15 08:23:37;;;;;;;25.67;14.70;;;;;;;14.98;56.13;102378.25;4996005;28;20166;-68
2021/11/15 08:26:26;;;;;;;28.90;15.10;;;;;;;15.18;55.77;102377.28;4994578;28;20571;-68
2021/11/15 08:28:52;;;;;;;22.23;13.57;;;;;;;14.21;58.39;102387.13;4995375;28;20169;-68
2021/11/15 08:31:18;;;;;;;30.90;14.97;;;;;;;14.86;56.02;102378.78;4993835;28;20711;-68
2021/11/15 08:33:43;;;;;;;25.03;13.93;;;;;;;15.41;55.58;102383.38;4994006;28;20221;-67
2021/11/15 08:36:09;;;;;;;36.63;22.83;;;;;;;15.06;56.08;102385.06;4977394;28;20212;-69
2021/11/15 08:38:57;;;;;;;24.50;13.23;;;;;;;15.98;54.72;102392.22;4977886;28;20671;-68
2021/11/15 08:41:31;;;;;;;23.80;13.63;;;;;;;15.65;55.35;102390.28;4993792;28;20194;-68
2021/11/15 08:43:57;;;;;;;21.53;12.33;;;;;;;14.96;56.85;102406.13;4993821;28;20185;-68
2021/11/15 08:46:24;;;;;;;25.63;14.23;;;;;;;14.11;57.96;102388.44;4995174;28;20651;-68
2021/11/15 08:48:49;;;;;;;25.37;14.30;;;;;;;14.79;56.59;102389.91;4994616;28;20659;-68
2021/11/15 08:51:17;;;;;;;26.77;14.53;;;;;;;14.79;57.72;102403.34;4994716;28;20224;-68
2021/11/15 08:53:42;;;;;;;23.90;13.80;;;;;;;14.33;57.82;102395.50;4994438;28;20181;-68
2021/11/15 08:56:08;;;;;;;23.13;12.83;;;;;;;14.20;57.82;102393.44;4994353;28;20197;-67
2021/11/15 08:58:33;;;;;;;22.90;13.00;;;;;;;13.76;58.93;102394.38;4994276;28;20174;-68
2021/11/15 09:00:59;;;;;;;26.47;13.07;;;;;;;15.23;55.28;102391.38;4992714;28;20201;-68
2021/11/15 09:03:24;;;;;;;23.07;13.27;;;;;;;14.40;56.73;102382.66;4993364;28;20185;-67
2021/11/15 09:05:50;;;;;;;23.53;13.23;;;;;;;13.41;58.53;102385.09;4994514;28;20166;-68
2021/11/15 09:08:17;;;;;;;26.37;13.80;;;;;;;14.40;57.07;102393.41;4993566;28;20181;-68
2021/11/15 09:10:42;;;;;;;25.47;14.23;;;;;;;13.64;57.95;102383.25;4994330;28;20532;-67
2021/11/15 09:13:07;;;;;;;25.20;13.67;;;;;;;15.21;55.36;102389.69;4992807;28;20185;-67
2021/11/15 09:15:33;;;;;;;25.50;14.03;;;;;;;13.92;57.98;102383.84;4994163;28;20715;-67
2021/11/15 09:17:58;;;;;;;27.83;14.43;;;;;;;15.22;55.57;102397.69;4992834;28;20249;-69
2021/11/15 09:20:25;;;;;;;26.70;14.67;;;;;;;14.04;57.15;102387.81;4994013;28;20241;-67
2021/11/15 09:22:52;;;;;;;26.10;15.33;;;;;;;14.00;58.05;102388.91;4994105;28;20208;-67
2021/11/15 09:25:17;;;;;;;31.70;14.00;;;;;;;13.26;59.22;102388.34;4992888;28;20176;-68
2021/11/15 09:27:42;;;;;;;24.90;13.87;;;;;;;14.82;57.04;102393.31;4994465;28;20178;-69
2021/11/15 09:30:09;;;;;;;26.10;14.10;;;;;;;15.02;56.25;102395.09;4992793;28;20213;-68
2021/11/15 09:32:35;;;;;;;22.63;12.47;;;;;;;13.65;57.41;102388.56;4994100;28;20185;-69
2021/11/15 09:35:00;;;;;;;19.03;12.03;;;;;;;13.11;59.31;102394.31;4993454;28;20260;-68
2021/11/15 09:37:27;;;;;;;24.37;12.90;;;;;;;13.33;58.99;102384.50;4994136;28;20173;-69
2021/11/15 09:39:55;;;;;;;22.30;12.47;;;;;;;13.29;58.05;102382.00;4994278;28;20541;-68
2021/11/15 09:42:20;;;;;;;21.27;12.10;;;;;;;13.79;57.77;102384.44;4993875;28;20662;-69
2021/11/15 09:44:46;;;;;;;22.53;11.17;;;;;;;13.74;58.29;102389.97;4992841;28;20182;-68
2021/11/15 09:47:11;;;;;;;20.93;11.60;;;;;;;13.39;58.94;102392.31;4994173;28;20543;-68
2021/11/15 09:49:37;;;;;;;17.17;10.90;;;;;;;14.15;57.05;102396.31;4993799;28;20552;-68
2021/11/15 09:52:03;;;;;;;17.03;10.13;;;;;;;15.02;54.89;102389.72;4992916;28;20212;-67
2021/11/15 09:54:29;;;;;;;20.57;10.87;;;;;;;14.62;54.81;102388.88;4994031;28;20204;-69
2021/11/15 09:56:54;;;;;;;15.93;10.50;;;;;;;15.10;54.10;102392.91;4993920;28;20553;-68
2021/11/15 09:59:21;;;;;;;17.90;10.43;;;;;;;14.70;54.53;102396.56;4994509;28;20702;-67
2021/11/15 10:01:48;;;;;;;16.97;11.10;;;;;;;15.51;53.35;102392.72;4994007;28;20177;-68
2021/11/15 10:04:16;;;;;;;19.17;11.63;;;;;;;14.87;53.98;102377.00;4993881;28;20177;-68
2021/11/15 10:06:46;;;;;;;19.33;11.37;;;;;;;15.39;54.22;102396.91;4994031;28;20174;-68
2021/11/15 10:09:11;;;;;;;14.77;9.47;;;;;;;14.18;55.68;102389.94;4993970;28;20181;-69
2021/11/15 10:11:45;;;;;;;23.80;10.30;;;;;;;14.83;55.33;102396.88;4994572;28;20197;-69
2021/11/15 10:14:12;;;;;;;21.80;10.43;;;;;;;14.85;54.34;102384.22;4998675;28;20191;-69
2021/11/15 10:16:38;;;;;;;17.70;10.50;;;;;;;13.93;55.93;102390.97;4998816;28;20221;-69
2021/11/15 10:19:08;;;;;;;14.20;10.00;;;;;;;15.92;52.11;102391.56;4998331;28;20177;-69
2021/11/15 10:21:51;;;;;;;18.07;11.23;;;;;;;14.14;55.82;102386.50;4997189;28;20228;-68
2021/11/15 10:24:31;;;;;;;17.87;11.07;;;;;;;16.10;52.13;102380.84;4997133;28;20166;-68
2021/11/15 10:27:01;;;;;;;16.10;10.43;;;;;;;15.26;53.67;102375.13;4997798;28;20609;-67
2021/11/15 10:29:41;;;;;;;23.47;12.40;;;;;;;15.69;52.76;102378.44;4997827;28;20174;-68
2021/11/15 10:32:14;;;;;;;17.83;10.43;;;;;;;15.07;54.30;102370.69;4998910;28;20528;-68
2021/11/15 10:34:54;;;;;;;15.87;10.23;;;;;;;14.48;55.32;102364.41;4997503;28;20169;-68
2021/11/15 10:37:22;;;;;;;19.47;11.00;;;;;;;13.61;57.33;102372.66;4996545;28;20505;-68
2021/11/15 10:40:09;;;;;;;16.17;10.37;;;;;;;13.93;56.36;102363.25;4997198;28;20199;-68
2021/11/15 10:42:46;;;;;;;13.03;7.83;;;;;;;14.75;54.54;102358.72;4995976;28;20196;-68
2021/11/15 10:45:16;;;;;;;13.13;8.23;;;;;;;14.78;54.55;102355.91;4997235;28;20158;-67
2021/11/15 10:47:49;;;;;;;15.87;8.90;;;;;;;15.47;52.91;102358.84;4996106;28;20196;-66
2021/11/15 10:50:22;;;;;;;14.53;9.03;;;;;;;14.91;54.29;102354.41;4996794;28;20288;-68
2021/11/15 10:53:07;;;;;;;13.17;8.07;;;;;;;14.84;53.65;102342.16;4995785;28;20668;-68
2021/11/15 10:55:47;;;;;;;13.50;8.30;;;;;;;15.10;52.53;102332.88;4997325;28;20193;-67
2021/11/15 10:58:18;;;;;;;17.63;9.07;;;;;;;15.15;53.35;102347.84;4997375;28;20560;-68
2021/11/15 11:00:51;;;;;;;13.10;8.87;;;;;;;15.58;52.74;102351.16;4995588;28;20201;-67
2021/11/15 11:03:20;;;;;;;13.07;8.63;;;;;;;14.69;54.05;102347.31;4996017;28;20258;-68
2021/11/15 11:05:48;;;;;;;17.57;8.70;;;;;;;15.54;52.66;102361.16;4995724;28;20193;-68
2021/11/15 11:08:20;;;;;;;13.13;8.30;;;;;;;15.28;53.22;102353.53;4997089;28;20228;-68